007 — FAD6251 — position and weather

sailwx.info

Track history (hours):
 
Tides and Currents Weather Stations Pressure Air Temp Water Temp Dewpoint Dewpoint Depression Visibility Wind Speed Wind Dir Waves Ship Positions

007

Last reported at 2017-Aug-22 13:34 UTC. Time now 2017-Sep-19 19:12 UTC.
Position N 46°09' W 001°10'.
Warning: this ship's position is 28 days out of date.

Length 11 m.

Type: Sailing vessel. MMSI: 227412110.

Date/timePositionNaut miles runAvg speedWind from/ knotsBaromVisibWave heightAir tempDewpointWater temp
2017-Aug-22 13:34N 46°09' W 001°10'0 0.0
2017-Aug-22 13:16N 46°09' W 001°10'0 0.3
2017-Aug-22 13:00N 46°09' W 001°10'1 2.7
2017-Aug-22 12:30N 46°08' W 001°12'3 5.4
2017-Aug-22 11:58N 46°07' W 001°15'68 2.5
2017-Aug-21 08:38N 46°56' W 002°22'36 1.5
2017-Aug-20 09:01N 47°25' W 002°53'1 6.1
2017-Aug-20 08:56N 47°25' W 002°53'3 6.0
2017-Aug-20 08:25N 47°28' W 002°55'2 5.8
2017-Aug-20 08:00N 47°30' W 002°57'3 6.0
2017-Aug-20 07:29N 47°33' W 002°60'2 5.2
2017-Aug-20 07:00N 47°35' W 003°01'1 0.8
2017-Aug-20 06:20N 47°35' W 003°01'0 0.0
2017-Aug-20 05:44N 47°35' W 003°01'0 0.0
2017-Aug-19 18:19N 47°35' W 003°01'0 0.1
2017-Aug-19 17:59N 47°35' W 003°02'2 3.3
2017-Aug-19 17:30N 47°34' W 003°01'3 5.9
2017-Aug-19 16:59N 47°31' W 002°58'1 2.9
2017-Aug-19 16:30N 47°31' W 002°56'3 6.3
2017-Aug-19 15:59N 47°34' W 002°54'3 4.7
2017-Aug-19 15:24N 47°36' W 002°51'0 0.4
2017-Aug-19 14:54N 47°36' W 002°51'0 0.0
2017-Aug-19 13:06N 47°36' W 002°51'0 0.0
2017-Aug-19 13:00N 47°36' W 002°51'0 0.0
2017-Aug-19 11:36N 47°36' W 002°51'0 0.0
2017-Aug-19 11:30N 47°36' W 002°51'0 0.0
2017-Aug-19 11:00N 47°36' W 002°51'0 0.0
2017-Aug-19 10:27N 47°36' W 002°51'0 0.0
2017-Aug-19 09:48N 47°36' W 002°51'0 0.0
2017-Aug-18 15:39N 47°36' W 002°51'0 0.0
2017-Aug-18 15:29N 47°36' W 002°51'0 0.4
2017-Aug-18 15:01N 47°36' W 002°51'7 6.2
2017-Aug-18 13:54N 47°30' W 002°55'7 0.1
2017-Aug-16 09:58N 47°22' W 002°54'2 0.1
2017-Aug-15 13:07N 47°23' W 002°56'0 0.0
2017-Aug-15 12:58N 47°23' W 002°56'0 0.8
2017-Aug-15 12:29N 47°23' W 002°56'2 4.2
2017-Aug-15 11:57N 47°25' W 002°57'3 6.3
2017-Aug-15 11:29N 47°28' W 002°59'3 5.5
2017-Aug-15 11:00N 47°30' W 003°00'3 6.7
2017-Aug-15 10:29N 47°34' W 003°01'1 2.0
2017-Aug-15 09:44N 47°35' W 003°02'0 0.0
2017-Aug-15 09:29N 47°35' W 003°02'0 0.0
2017-Aug-14 14:11N 47°35' W 003°02'0 0.0
2017-Aug-14 13:59N 47°35' W 003°02'1 2.5
2017-Aug-14 13:29N 47°34' W 003°01'3 4.9
2017-Aug-14 12:56N 47°32' W 002°59'2 4.2
2017-Aug-14 12:27N 47°31' W 002°56'4 7.0
2017-Aug-14 11:54N 47°34' W 002°54'3 5.7
2017-Aug-14 11:24N 47°36' W 002°51'2 3.9
2017-Aug-14 10:53N 47°37' W 002°48'1 2.8
2017-Aug-14 10:30N 47°38' W 002°46'1 2.5
2017-Aug-14 09:58N 47°39' W 002°45'0 0.0
2017-Aug-12 18:59N 47°39' W 002°45'1 0.4
2017-Aug-12 17:02N 47°38' W 002°46'0 2.4
2017-Aug-12 17:00N 47°38' W 002°46'1 1.4
2017-Aug-12 16:24N 47°38' W 002°46'2 3.7
2017-Aug-12 15:56N 47°37' W 002°49'3 5.2
2017-Aug-12 15:26N 47°35' W 002°52'3 5.8
2017-Aug-12 14:59N 47°34' W 002°55'2 3.5
2017-Aug-12 14:27N 47°32' W 002°55'1 2.1
2017-Aug-12 13:49N 47°31' W 002°55'  
Track history (hours):
 
Tides and Currents Weather Stations Pressure Air Temp Water Temp Dewpoint Dewpoint Depression Visibility Wind Speed Wind Dir Waves Ship Positions

007

Last reported at 2017-Aug-22 13:34 UTC. Time now 2017-Sep-19 19:12 UTC.
Position N 46°09' W 001°10'.
Warning: this ship's position is 28 days out of date.

Length 11 m.

Type: Sailing vessel. MMSI: 227412110.

Date/timePositionNaut miles runAvg speedWind from/ knotsBaromVisibWave heightAir tempDewpointWater temp
2017-Aug-22 13:34N 46°09' W 001°10'0 0.0
2017-Aug-22 13:16N 46°09' W 001°10'0 0.3
2017-Aug-22 13:00N 46°09' W 001°10'1 2.7
2017-Aug-22 12:30N 46°08' W 001°12'3 5.4
2017-Aug-22 11:58N 46°07' W 001°15'68 2.5
2017-Aug-21 08:38N 46°56' W 002°22'36 1.5
2017-Aug-20 09:01N 47°25' W 002°53'1 6.1
2017-Aug-20 08:56N 47°25' W 002°53'3 6.0
2017-Aug-20 08:25N 47°28' W 002°55'2 5.8
2017-Aug-20 08:00N 47°30' W 002°57'3 6.0
2017-Aug-20 07:29N 47°33' W 002°60'2 5.2
2017-Aug-20 07:00N 47°35' W 003°01'1 0.8
2017-Aug-20 06:20N 47°35' W 003°01'0 0.0
2017-Aug-20 05:44N 47°35' W 003°01'0 0.0
2017-Aug-19 18:19N 47°35' W 003°01'0 0.1
2017-Aug-19 17:59N 47°35' W 003°02'2 3.3
2017-Aug-19 17:30N 47°34' W 003°01'3 5.9
2017-Aug-19 16:59N 47°31' W 002°58'1 2.9
2017-Aug-19 16:30N 47°31' W 002°56'3 6.3
2017-Aug-19 15:59N 47°34' W 002°54'3 4.7
2017-Aug-19 15:24N 47°36' W 002°51'0 0.4
2017-Aug-19 14:54N 47°36' W 002°51'0 0.0
2017-Aug-19 13:06N 47°36' W 002°51'0 0.0
2017-Aug-19 13:00N 47°36' W 002°51'0 0.0
2017-Aug-19 11:36N 47°36' W 002°51'0 0.0
2017-Aug-19 11:30N 47°36' W 002°51'0 0.0
2017-Aug-19 11:00N 47°36' W 002°51'0 0.0
2017-Aug-19 10:27N 47°36' W 002°51'0 0.0
2017-Aug-19 09:48N 47°36' W 002°51'0 0.0
2017-Aug-18 15:39N 47°36' W 002°51'0 0.0
2017-Aug-18 15:29N 47°36' W 002°51'0 0.4
2017-Aug-18 15:01N 47°36' W 002°51'7 6.2
2017-Aug-18 13:54N 47°30' W 002°55'7 0.1
2017-Aug-16 09:58N 47°22' W 002°54'2 0.1
2017-Aug-15 13:07N 47°23' W 002°56'0 0.0
2017-Aug-15 12:58N 47°23' W 002°56'0 0.8
2017-Aug-15 12:29N 47°23' W 002°56'2 4.2
2017-Aug-15 11:57N 47°25' W 002°57'3 6.3
2017-Aug-15 11:29N 47°28' W 002°59'3 5.5
2017-Aug-15 11:00N 47°30' W 003°00'3 6.7
2017-Aug-15 10:29N 47°34' W 003°01'1 2.0
2017-Aug-15 09:44N 47°35' W 003°02'0 0.0
2017-Aug-15 09:29N 47°35' W 003°02'0 0.0
2017-Aug-14 14:11N 47°35' W 003°02'0 0.0
2017-Aug-14 13:59N 47°35' W 003°02'1 2.5
2017-Aug-14 13:29N 47°34' W 003°01'3 4.9
2017-Aug-14 12:56N 47°32' W 002°59'2 4.2
2017-Aug-14 12:27N 47°31' W 002°56'4 7.0
2017-Aug-14 11:54N 47°34' W 002°54'3 5.7
2017-Aug-14 11:24N 47°36' W 002°51'2 3.9
2017-Aug-14 10:53N 47°37' W 002°48'1 2.8
2017-Aug-14 10:30N 47°38' W 002°46'1 2.5
2017-Aug-14 09:58N 47°39' W 002°45'0 0.0
2017-Aug-12 18:59N 47°39' W 002°45'1 0.4
2017-Aug-12 17:02N 47°38' W 002°46'0 2.4
2017-Aug-12 17:00N 47°38' W 002°46'1 1.4
2017-Aug-12 16:24N 47°38' W 002°46'2 3.7
2017-Aug-12 15:56N 47°37' W 002°49'3 5.2
2017-Aug-12 15:26N 47°35' W 002°52'3 5.8
2017-Aug-12 14:59N 47°34' W 002°55'2 3.5
2017-Aug-12 14:27N 47°32' W 002°55'1 2.1
2017-Aug-12 13:49N 47°31' W 002°55'  

Dump ship's entire track history